Time;durP1;ratioP1;P1;durP2;ratioP2;P2;SDS_P1;SDS_P2;PMS_P1;PMS_P2;Temp;Humidity;BMP_temperature;BMP_pressure;BME280_temperature;BME280_humidity;BME280_pressure;Samples;Min_cycle;Max_cycle;Signal;HPM_P1;HPM_P2
2022/11/03 00:03:14;;;;;;;13.07;5.20;;;7.60;99.90;;;;;;4945663;29;20499;-73
2022/11/03 00:09:31;;;;;;;13.90;4.65;;;7.50;99.90;;;;;;4945930;29;20039;-73
2022/11/03 00:18:57;;;;;;;10.38;5.63;;;7.60;99.90;;;;;;4945216;29;20095;-73
2022/11/03 00:25:24;;;;;;;13.38;5.43;;;7.50;99.90;;;;;;4946452;29;20026;-73
2022/11/03 00:32:09;;;;;;;14.52;5.30;;;7.40;99.90;;;;;;4946395;29;20078;-73
2022/11/03 00:38:22;;;;;;;10.15;4.70;;;7.40;99.90;;;;;;4945627;29;20042;-73
2022/11/03 00:52:46;;;;;;;10.00;5.88;;;7.10;99.90;;;;;;4963873;29;20045;-73
2022/11/03 00:56:13;;;;;;;11.68;5.65;;;7.10;99.90;;;;;;4964256;29;20031;-73
2022/11/03 00:58:39;;;;;;;14.63;5.97;;;7.00;99.90;;;;;;4947016;29;20067;-72
2022/11/03 01:01:11;;;;;;;11.85;5.50;;;7.00;99.90;;;;;;4964182;29;20042;-72
2022/11/03 01:07:20;;;;;;;17.17;5.90;;;6.90;99.90;;;;;;4963045;29;20030;-73
2022/11/03 01:09:45;;;;;;;11.13;5.97;;;6.90;99.90;;;;;;4945348;29;20031;-73
2022/11/03 01:12:17;;;;;;;16.52;5.97;;;6.80;99.90;;;;;;4946484;29;20559;-73
2022/11/03 01:15:03;;;;;;;10.75;5.10;;;6.80;99.90;;;;;;4962950;29;20028;-73
2022/11/03 01:20:56;;;;;;;15.93;5.82;;;6.80;99.90;;;;;;4963916;29;20055;-73
2022/11/03 01:30:15;;;;;;;18.77;5.30;;;6.60;99.90;;;;;;4962452;28;20058;-73
2022/11/03 01:40:18;;;;;;;12.68;5.75;;;6.60;99.90;;;;;;4963952;29;20062;-73
2022/11/03 01:57:27;;;;;;;12.23;4.97;;;6.30;99.90;;;;;;4956453;29;20164;-73
2022/11/03 02:13:38;;;;;;;10.50;4.60;;;6.20;99.90;;;;;;4956241;29;20475;-72
2022/11/03 02:20:10;;;;;;;14.10;5.97;;;6.10;99.90;;;;;;4956086;29;20127;-72
2022/11/03 02:26:26;;;;;;;13.35;6.32;;;6.00;99.90;;;;;;4955974;29;20030;-72
2022/11/03 02:32:58;;;;;;;13.07;5.10;;;6.00;99.90;;;;;;4956619;29;20026;-72
2022/11/03 02:49:46;;;;;;;14.35;5.03;;;5.90;99.90;;;;;;4883572;29;20048;-72
2022/11/03 02:59:56;;;;;;;14.40;4.88;;;5.80;99.90;;;;;;4882251;29;20080;-73
2022/11/03 03:06:25;;;;;;;10.85;5.35;;;5.80;99.90;;;;;;4882287;29;20094;-73
2022/11/03 03:19:31;;;;;;;7.93;5.32;;;5.70;99.90;;;;;;4927827;29;20039;-73
2022/11/03 03:26:03;;;;;;;10.05;4.45;;;5.60;99.90;;;;;;4965437;29;20046;-73
2022/11/03 03:32:02;;;;;;;10.45;5.10;;;5.60;99.90;;;;;;4962527;29;20026;-73
2022/11/03 03:34:29;;;;;;;14.10;5.85;;;5.60;99.90;;;;;;4961882;29;20035;-72
2022/11/03 03:36:58;;;;;;;14.48;4.63;;;5.60;99.90;;;;;;4961350;29;20158;-73
2022/11/03 03:43:01;;;;;;;12.90;4.43;;;5.60;99.90;;;;;;4959721;29;20035;-73
2022/11/03 03:45:27;;;;;;;12.63;4.63;;;5.60;99.90;;;;;;4958369;29;20058;-73
2022/11/03 03:47:53;;;;;;;12.35;4.70;;;5.60;99.90;;;;;;4944079;29;20039;-73
2022/11/03 03:50:24;;;;;;;10.52;4.85;;;5.60;99.90;;;;;;4960044;29;20027;-73
2022/11/03 03:56:42;;;;;;;8.52;4.53;;;5.60;99.90;;;;;;4960126;29;20034;-72
2022/11/03 04:06:02;;;;;;;13.45;5.22;;;5.70;99.90;;;;;;4959313;29;20398;-73
2022/11/03 04:28:52;;;;;;;10.75;4.90;;;5.60;99.90;;;;;;4959570;28;20035;-73
2022/11/03 04:38:55;;;;;;;11.63;4.57;;;5.70;99.90;;;;;;4958355;28;20047;-73
2022/11/03 05:09:30;;;;;;;7.53;4.68;;;5.80;99.90;;;;;;4958999;29;20082;-79
2022/11/03 05:11:56;;;;;;;13.18;5.25;;;5.90;99.90;;;;;;4963474;29;20047;-74
2022/11/03 05:14:25;;;;;;;15.90;4.25;;;5.90;99.90;;;;;;4948067;29;20035;-74
2022/11/03 05:17:31;;;;;;;14.75;4.65;;;6.00;99.90;;;;;;4948486;29;20041;-73
2022/11/03 05:23:22;;;;;;;10.68;4.03;;;6.10;99.90;;;;;;4964683;29;20094;-73
2022/11/03 05:25:58;;;;;;;10.75;3.97;;;6.10;99.90;;;;;;4947604;29;20483;-74
2022/11/03 05:28:38;;;;;;;10.50;3.67;;;6.20;99.90;;;;;;4966326;29;20035;-75
2022/11/03 05:31:22;;;;;;;6.95;3.65;;;6.20;99.90;;;;;;4965588;29;20391;-73
2022/11/03 05:33:49;;;;;;;9.38;3.92;;;6.20;99.90;;;;;;4965046;29;20027;-75
2022/11/03 05:36:21;;;;;;;6.75;4.05;;;6.30;99.90;;;;;;4965351;29;20038;-74
2022/11/03 05:38:48;;;;;;;11.10;3.83;;;6.30;99.90;;;;;;4964428;29;20082;-73
2022/11/03 05:41:29;;;;;;;9.68;3.50;;;6.30;99.90;;;;;;4964373;29;20035;-73
2022/11/03 05:44:01;;;;;;;6.75;3.72;;;6.40;99.90;;;;;;4964591;29;20031;-73
2022/11/03 05:46:54;;;;;;;8.73;3.53;;;6.40;99.90;;;;;;4965642;29;20035;-73
2022/11/03 05:53:27;;;;;;;7.07;3.88;;;6.40;99.90;;;;;;4963322;29;20034;-73
2022/11/03 05:55:54;;;;;;;10.05;4.00;;;6.50;99.90;;;;;;4962032;29;20035;-73
2022/11/03 05:58:25;;;;;;;10.00;3.58;;;6.60;99.90;;;;;;4963680;29;20035;-73
2022/11/03 06:11:35;;;;;;;9.57;3.83;;;7.00;99.90;;;;;;4962385;29;20055;-73
2022/11/03 06:21:16;;;;;;;7.85;4.18;;;7.40;99.90;;;;;;4963239;29;20031;-73
2022/11/03 06:27:29;;;;;;;10.55;5.63;;;7.60;99.90;;;;;;4962239;29;20112;-73
2022/11/03 06:43:40;;;;;;;12.45;5.40;;;8.10;99.90;;;;;;4963171;29;20531;-73
2022/11/03 07:33:57;;;;;;;10.25;4.60;;;10.60;99.90;;;;;;4959868;29;20095;-73
2022/11/03 07:36:25;;;;;;;13.30;5.28;;;11.40;99.90;;;;;;4958845;29;20118;-73
2022/11/03 07:38:55;;;;;;;16.53;5.07;;;12.00;99.90;;;;;;4941032;29;20027;-73
2022/11/03 07:41:26;;;;;;;15.10;5.15;;;12.40;99.90;;;;;;4958387;29;20027;-73
2022/11/03 07:43:58;;;;;;;11.10;5.20;;;12.70;99.90;;;;;;4940929;29;20502;-73
2022/11/03 07:46:25;;;;;;;12.07;4.50;;;12.80;99.90;;;;;;4957874;29;20386;-73
2022/11/03 07:48:57;;;;;;;9.20;4.20;;;13.00;99.90;;;;;;4940532;29;20111;-73
2022/11/03 07:51:36;;;;;;;11.25;4.32;;;13.40;99.90;;;;;;4957676;29;20082;-73
2022/11/03 07:54:02;;;;;;;9.57;4.10;;;13.60;99.90;;;;;;4957555;29;20027;-73
2022/11/03 07:56:38;;;;;;;15.75;5.20;;;13.90;99.90;;;;;;4940515;29;20395;-73
2022/11/03 07:59:14;;;;;;;9.07;4.32;;;14.30;99.90;;;;;;4940584;29;20028;-73
2022/11/03 08:01:46;;;;;;;10.55;4.15;;;14.70;99.90;;;;;;4940436;29;20490;-73
2022/11/03 08:04:21;;;;;;;8.93;3.95;;;14.90;99.90;;;;;;4957826;29;20498;-73
2022/11/03 08:06:47;;;;;;;11.77;3.60;;;15.00;99.90;;;;;;4940793;29;20170;-74
2022/11/03 08:09:13;;;;;;;9.10;3.60;;;15.30;99.90;;;;;;4957526;29;20030;-73
2022/11/03 08:11:38;;;;;;;12.48;3.55;;;15.50;99.90;;;;;;4957421;29;20375;-74
2022/11/03 08:14:04;;;;;;;8.57;3.55;;;15.70;99.90;;;;;;4957341;29;20039;-73
2022/11/03 08:16:30;;;;;;;4.57;2.90;;;15.90;99.90;;;;;;4957349;29;20027;-74
2022/11/03 08:18:55;;;;;;;6.03;3.00;;;15.90;99.90;;;;;;4957478;29;20038;-74
2022/11/03 08:21:21;;;;;;;9.60;2.95;;;16.10;99.90;;;;;;4957095;29;20035;-73
2022/11/03 08:23:47;;;;;;;10.77;4.28;;;16.20;99.90;;;;;;4957313;29;20038;-74
2022/11/03 08:26:12;;;;;;;11.30;3.55;;;16.30;99.90;;;;;;4940347;29;20122;-74
2022/11/03 08:28:38;;;;;;;7.80;2.70;;;16.60;99.90;;;;;;4957307;29;20023;-74
2022/11/03 08:31:04;;;;;;;9.68;3.25;;;17.00;99.90;;;;;;4939618;29;20032;-74
2022/11/03 08:33:31;;;;;;;11.57;3.55;;;17.20;99.20;;;;;;4939923;29;20027;-74
2022/11/03 08:35:57;;;;;;;5.10;2.65;;;17.40;98.40;;;;;;4957455;29;20077;-74
2022/11/03 08:38:23;;;;;;;7.55;2.30;;;17.40;98.30;;;;;;4956889;29;20483;-74
2022/11/03 08:40:49;;;;;;;9.82;3.00;;;17.60;97.70;;;;;;4956866;28;20029;-74
2022/11/03 08:43:14;;;;;;;9.98;2.70;;;18.00;96.80;;;;;;4939752;29;20035;-74
2022/11/03 08:45:40;;;;;;;6.43;2.97;;;18.50;95.80;;;;;;4939214;29;20471;-74
2022/11/03 08:48:06;;;;;;;12.95;2.80;;;18.70;94.50;;;;;;4939699;29;20031;-74
2022/11/03 08:50:31;;;;;;;10.90;3.17;;;19.10;93.60;;;;;;4956566;29;20067;-74
2022/11/03 08:52:57;;;;;;;9.70;2.47;;;19.40;92.30;;;;;;4956981;29;20428;-74
2022/11/03 08:55:23;;;;;;;10.57;3.03;;;19.30;91.20;;;;;;4940079;29;20028;-74
2022/11/03 08:57:49;;;;;;;8.43;3.88;;;19.20;91.00;;;;;;4939348;29;20035;-74
2022/11/03 09:00:17;;;;;;;8.10;2.67;;;19.70;90.50;;;;;;4957351;29;20042;-74
2022/11/03 09:02:44;;;;;;;8.95;2.95;;;19.60;89.40;;;;;;4939677;29;20379;-74
2022/11/03 09:05:11;;;;;;;5.75;2.65;;;19.80;87.80;;;;;;4957046;29;20035;-74
2022/11/03 09:07:40;;;;;;;12.57;3.85;;;19.70;88.20;;;;;;4956560;29;20035;-74
2022/11/03 09:10:09;;;;;;;10.60;2.83;;;19.90;86.20;;;;;;4954957;29;20038;-74
2022/11/03 09:12:38;;;;;;;8.43;2.70;;;20.30;84.80;;;;;;4939248;29;20098;-74
2022/11/03 09:15:05;;;;;;;4.38;2.17;;;20.60;83.20;;;;;;4939247;29;20055;-74
2022/11/03 09:17:31;;;;;;;4.82;2.65;;;20.50;81.80;;;;;;4938795;29;20039;-74
2022/11/03 09:19:57;;;;;;;4.75;1.92;;;20.60;81.00;;;;;;4939908;29;20152;-74
2022/11/03 09:22:22;;;;;;;9.65;2.70;;;20.40;80.80;;;;;;4938927;29;20031;-74
2022/11/03 09:24:48;;;;;;;6.95;2.20;;;19.60;81.00;;;;;;4956678;29;20115;-74
2022/11/03 09:27:14;;;;;;;7.72;2.15;;;19.90;82.30;;;;;;4956308;29;20035;-74
2022/11/03 09:29:39;;;;;;;6.30;1.98;;;20.60;80.60;;;;;;4956143;29;20034;-74
2022/11/03 09:32:05;;;;;;;5.93;1.95;;;20.80;78.90;;;;;;4939048;29;20027;-74
2022/11/03 09:34:31;;;;;;;8.02;1.73;;;21.10;78.00;;;;;;4939209;29;20336;-74
2022/11/03 09:36:57;;;;;;;9.00;1.55;;;21.60;74.50;;;;;;4955976;29;20045;-74
2022/11/03 09:39:23;;;;;;;5.55;1.73;;;21.40;72.30;;;;;;4956016;29;20114;-74
2022/11/03 09:41:49;;;;;;;4.40;1.40;;;20.70;71.90;;;;;;4956005;29;20030;-74
2022/11/03 09:44:15;;;;;;;6.45;1.13;;;20.30;72.60;;;;;;4955952;29;20074;-74
2022/11/03 09:46:40;;;;;;;4.15;1.27;;;20.40;73.00;;;;;;4938854;29;20034;-74
2022/11/03 09:49:06;;;;;;;4.72;1.27;;;20.30;72.40;;;;;;4938225;29;20491;-74
2022/11/03 09:51:35;;;;;;;5.82;1.50;;;20.30;74.30;;;;;;4938691;29;20031;-74
2022/11/03 09:54:04;;;;;;;4.82;1.00;;;20.70;72.00;;;;;;4955887;29;20463;-74
2022/11/03 09:56:31;;;;;;;3.92;1.08;;;20.40;71.00;;;;;;4938521;29;20031;-74
2022/11/03 09:58:58;;;;;;;8.45;1.25;;;20.20;71.90;;;;;;4938688;29;20031;-74
2022/11/03 10:01:23;;;;;;;5.70;1.88;;;20.20;72.50;;;;;;4938527;29;20043;-74
2022/11/03 10:03:49;;;;;;;3.40;1.30;;;20.60;70.50;;;;;;4938417;29;20030;-74
2022/11/03 10:06:16;;;;;;;4.25;1.08;;;20.70;70.60;;;;;;4955771;29;20066;-74
2022/11/03 10:08:45;;;;;;;5.35;1.30;;;20.40;70.90;;;;;;4954364;29;20086;-74
2022/11/03 10:11:11;;;;;;;15.65;1.80;;;20.30;71.50;;;;;;4938427;29;20480;-74
2022/11/03 10:13:40;;;;;;;7.07;1.08;;;19.80;72.50;;;;;;4955622;29;20031;-74
2022/11/03 10:16:12;;;;;;;5.05;1.17;;;20.00;72.80;;;;;;4955789;29;20024;-74
2022/11/03 10:18:37;;;;;;;6.10;1.63;;;20.40;71.90;;;;;;4955322;29;20081;-74
2022/11/03 10:21:05;;;;;;;5.90;1.85;;;20.60;71.40;;;;;;4955521;29;20054;-74
2022/11/03 10:23:32;;;;;;;5.03;1.30;;;20.80;70.80;;;;;;4955629;29;20027;-75
2022/11/03 10:26:27;;;;;;;4.43;1.00;;;21.00;71.00;;;;;;4955451;29;20140;-74
2022/11/03 10:28:59;;;;;;;5.22;1.48;;;20.80;70.20;;;;;;4930224;29;20035;-74
2022/11/03 10:31:40;;;;;;;6.50;1.60;;;21.10;69.90;;;;;;4955263;29;20395;-74
2022/11/03 10:34:25;;;;;;;3.90;1.13;;;20.50;69.70;;;;;;4955411;29;20038;-74
2022/11/03 10:37:08;;;;;;;4.25;1.40;;;21.10;70.10;;;;;;4955419;29;20035;-74
2022/11/03 10:39:34;;;;;;;5.28;1.50;;;21.40;68.50;;;;;;4938340;29;20375;-75
2022/11/03 10:42:00;;;;;;;4.70;1.30;;;21.60;67.40;;;;;;4955189;29;20027;-75
2022/11/03 10:44:27;;;;;;;8.15;1.73;;;22.00;67.60;;;;;;4922067;29;20070;-74
2022/11/03 10:47:02;;;;;;;6.13;1.25;;;22.00;65.70;;;;;;4936014;29;20050;-74
2022/11/03 10:49:29;;;;;;;4.20;1.13;;;21.80;66.40;;;;;;4918828;29;20055;-74
2022/11/03 10:52:24;;;;;;;5.22;1.45;;;22.60;65.30;;;;;;4936021;29;20476;-74
2022/11/03 10:54:52;;;;;;;8.50;1.60;;;23.30;63.30;;;;;;4916548;29;20047;-74
2022/11/03 10:57:19;;;;;;;5.40;1.27;;;23.00;62.20;;;;;;4936132;29;20044;-73
2022/11/03 10:59:47;;;;;;;5.90;1.58;;;22.70;63.50;;;;;;4925006;29;20067;-73
2022/11/03 11:02:23;;;;;;;4.38;1.77;;;23.40;62.20;;;;;;4919512;29;20099;-73
2022/11/03 11:05:00;;;;;;;6.88;1.67;;;23.70;60.90;;;;;;4939634;29;20115;-73
2022/11/03 11:07:35;;;;;;;5.18;1.38;;;23.50;61.10;;;;;;4922661;29;20078;-73
2022/11/03 11:10:16;;;;;;;2.42;1.30;;;23.40;60.90;;;;;;4922430;29;20050;-73
2022/11/03 11:13:22;;;;;;;7.72;1.45;;;22.90;60.40;;;;;;4939409;29;20472;-73
2022/11/03 11:15:52;;;;;;;5.03;1.50;;;23.10;60.70;;;;;;4938396;29;20039;-74
2022/11/03 11:18:30;;;;;;;3.20;1.35;;;23.10;60.00;;;;;;4939385;29;20040;-57
2022/11/03 11:20:59;;;;;;;5.18;1.27;;;22.20;62.60;;;;;;4938261;29;20055;-58
2022/11/03 11:23:28;;;;;;;5.28;1.55;;;22.40;63.80;;;;;;4939299;29;20041;-58
2022/11/03 11:26:09;;;;;;;4.70;1.30;;;22.50;63.40;;;;;;4939184;29;20034;-58
2022/11/03 11:28:38;;;;;;;4.30;1.40;;;22.50;63.70;;;;;;4939216;29;20035;-57
2022/11/03 11:31:26;;;;;;;4.70;1.20;;;21.90;63.50;;;;;;4937850;29;20491;-57
2022/11/03 11:34:11;;;;;;;4.65;1.25;;;22.40;64.10;;;;;;4939389;29;20023;-57
2022/11/03 11:36:41;;;;;;;6.63;1.67;;;22.00;64.10;;;;;;4938938;29;20032;-57
2022/11/03 11:39:26;;;;;;;3.67;1.50;;;22.20;62.90;;;;;;4939182;29;20063;-57
2022/11/03 11:42:11;;;;;;;6.43;1.88;;;22.00;62.10;;;;;;4938657;29;20032;-57
2022/11/03 11:44:42;;;;;;;5.20;1.88;;;22.10;62.40;;;;;;4938950;29;20036;-57
2022/11/03 11:47:42;;;;;;;5.60;2.10;;;21.80;63.00;;;;;;4937724;29;20115;-61
2022/11/03 11:50:08;;;;;;;3.97;1.70;;;21.70;64.30;;;;;;4938480;29;20407;-57
2022/11/03 11:52:43;;;;;;;2.80;1.90;;;20.90;65.40;;;;;;4938929;29;20024;-57
2022/11/03 11:55:34;;;;;;;4.10;1.65;;;20.40;65.20;;;;;;4938483;29;20027;-58
2022/11/03 11:58:03;;;;;;;4.25;1.85;;;20.70;66.50;;;;;;4938855;29;20036;-57
2022/11/03 12:00:32;;;;;;;4.35;2.20;;;20.80;67.40;;;;;;4938628;29;20027;-57
2022/11/03 12:03:01;;;;;;;6.18;2.42;;;21.00;65.10;;;;;;4938104;29;20480;-57
2022/11/03 12:05:34;;;;;;;3.60;1.95;;;20.90;65.00;;;;;;4938652;29;20110;-57
2022/11/03 12:08:00;;;;;;;4.60;1.90;;;20.50;65.30;;;;;;4921428;29;20043;-57
2022/11/03 12:10:30;;;;;;;4.63;2.22;;;20.50;67.10;;;;;;4938185;29;20032;-57
2022/11/03 12:12:58;;;;;;;6.38;2.42;;;20.70;66.30;;;;;;4938123;29;20024;-57
2022/11/03 12:15:55;;;;;;;3.58;1.70;;;20.50;65.90;;;;;;4937479;29;20147;-57
2022/11/03 12:18:41;;;;;;;4.43;1.77;;;20.30;66.60;;;;;;4938459;29;20059;-57
2022/11/03 12:21:08;;;;;;;4.43;1.75;;;20.70;67.00;;;;;;4937932;29;20409;-57
2022/11/03 12:23:35;;;;;;;5.55;2.22;;;20.70;65.90;;;;;;4921100;29;20028;-57
2022/11/03 12:26:02;;;;;;;4.97;2.42;;;20.80;66.30;;;;;;4938299;29;20576;-58
2022/11/03 12:28:36;;;;;;;6.32;1.88;;;20.70;67.20;;;;;;4938062;29;20043;-57
2022/11/03 12:31:02;;;;;;;4.15;1.90;;;21.10;65.70;;;;;;4938026;29;20027;-58
2022/11/03 12:33:28;;;;;;;4.63;2.10;;;21.30;64.80;;;;;;4938076;29;20055;-57
2022/11/03 12:35:55;;;;;;;5.85;1.60;;;21.00;65.80;;;;;;4938008;29;20027;-57
2022/11/03 12:38:22;;;;;;;6.80;1.83;;;20.70;66.00;;;;;;4937619;29;20123;-58
2022/11/03 12:40:47;;;;;;;4.82;2.05;;;20.80;66.30;;;;;;4941168;29;20082;-58
2022/11/03 12:43:13;;;;;;;4.78;1.70;;;20.90;66.10;;;;;;4922202;29;20490;-58
2022/11/03 12:45:40;;;;;;;5.38;2.15;;;21.50;65.40;;;;;;4937794;29;20023;-74
2022/11/03 12:48:06;;;;;;;4.95;1.60;;;21.30;64.40;;;;;;4950633;29;20455;-74
2022/11/03 12:50:32;;;;;;;8.40;2.28;;;21.30;64.60;;;;;;4939148;29;20054;-75
2022/11/03 12:53:05;;;;;;;5.53;2.22;;;21.10;64.20;;;;;;4956793;29;20063;-74
2022/11/03 12:55:31;;;;;;;3.67;1.90;;;20.70;65.40;;;;;;4956801;29;20031;-74
2022/11/03 12:57:57;;;;;;;5.20;1.88;;;20.60;65.70;;;;;;4939285;29;20040;-75
2022/11/03 13:00:22;;;;;;;4.57;1.88;;;21.10;65.50;;;;;;4956742;29;20031;-74
2022/11/03 13:02:48;;;;;;;7.45;1.83;;;21.50;64.20;;;;;;4939125;29;20451;-74
2022/11/03 13:05:14;;;;;;;4.45;2.10;;;21.60;64.00;;;;;;4938916;29;20027;-74
2022/11/03 13:07:41;;;;;;;6.35;2.17;;;21.00;64.80;;;;;;4956085;29;20034;-75
2022/11/03 13:10:07;;;;;;;5.22;2.22;;;20.60;65.90;;;;;;4956516;29;20027;-74
2022/11/03 13:12:34;;;;;;;4.82;2.10;;;20.40;66.40;;;;;;4939163;29;20027;-74
2022/11/03 13:15:03;;;;;;;3.90;1.60;;;20.10;67.70;;;;;;4939569;29;20117;-74
2022/11/03 13:17:28;;;;;;;;;;;20.60;67.00;;;;;;4939396;29;20550;-73
2022/11/03 13:19:54;;;;;;;5.05;2.17;;;20.00;67.80;;;;;;4939386;29;19907;-73
2022/11/03 13:22:19;;;;;;;6.75;2.60;;;19.70;69.30;;;;;;4939096;29;20441;-73
2022/11/03 13:24:45;;;;;;;4.95;2.30;;;19.70;70.00;;;;;;4938958;29;20031;-74
2022/11/03 13:27:11;;;;;;;6.18;2.60;;;19.60;70.10;;;;;;4955922;28;20069;-73
2022/11/03 13:29:37;;;;;;;3.45;2.40;;;19.50;70.40;;;;;;4956239;29;20111;-73
2022/11/03 13:32:03;;;;;;;6.15;2.58;;;19.30;72.00;;;;;;4939003;29;20023;-74
2022/11/03 13:34:29;;;;;;;9.38;3.20;;;19.40;72.10;;;;;;4956089;29;20064;-74
2022/11/03 13:36:55;;;;;;;9.40;3.00;;;19.20;72.80;;;;;;4955935;29;20042;-73
2022/11/03 13:39:21;;;;;;;4.70;2.65;;;18.90;73.80;;;;;;4938970;29;20035;-73
2022/11/03 13:41:47;;;;;;;9.25;3.15;;;18.90;74.70;;;;;;4956031;29;20023;-74
2022/11/03 13:44:13;;;;;;;9.43;3.15;;;18.90;75.40;;;;;;4939250;29;20027;-73
2022/11/03 13:46:39;;;;;;;7.90;2.90;;;18.70;75.70;;;;;;4938722;29;20535;-74
2022/11/03 13:49:05;;;;;;;7.60;3.28;;;18.40;77.30;;;;;;4955657;29;20051;-73
2022/11/03 13:51:30;;;;;;;9.32;4.25;;;18.10;78.70;;;;;;4938599;29;20027;-74
2022/11/03 13:53:57;;;;;;;8.23;2.95;;;17.90;80.20;;;;;;4955994;29;20471;-74
2022/11/03 13:56:22;;;;;;;6.95;2.65;;;17.90;80.90;;;;;;4955875;29;20035;-73
2022/11/03 13:58:49;;;;;;;4.43;2.50;;;18.00;81.10;;;;;;4955709;29;20428;-74
2022/11/03 14:01:14;;;;;;;7.45;3.15;;;18.10;81.20;;;;;;4955767;29;20023;-73
2022/11/03 14:03:40;;;;;;;6.05;3.05;;;18.00;81.40;;;;;;4938889;29;20385;-74
2022/11/03 14:06:06;;;;;;;9.10;3.25;;;17.80;82.30;;;;;;4938553;29;20028;-74
2022/11/03 14:08:32;;;;;;;5.57;2.80;;;17.90;83.00;;;;;;4955726;29;20038;-74
2022/11/03 14:10:57;;;;;;;10.55;3.17;;;17.90;83.10;;;;;;4938522;29;20039;-74
2022/11/03 14:13:23;;;;;;;5.63;3.10;;;17.70;84.30;;;;;;4955687;29;20028;-74
2022/11/03 14:15:48;;;;;;;9.35;4.45;;;17.50;86.20;;;;;;4955384;29;20379;-75
2022/11/03 14:18:14;;;;;;;3.30;2.70;;;17.30;87.40;;;;;;4938449;29;20035;-74
2022/11/03 14:20:40;;;;;;;6.88;3.13;;;17.30;88.80;;;;;;4955633;29;20030;-73
2022/11/03 14:23:05;;;;;;;7.03;3.45;;;17.10;90.20;;;;;;4955267;29;20028;-73
2022/11/03 14:25:31;;;;;;;6.95;3.67;;;16.90;91.10;;;;;;4955510;29;20027;-73
2022/11/03 14:27:56;;;;;;;5.22;3.38;;;16.90;91.80;;;;;;4955694;29;20471;-73
2022/11/03 14:30:22;;;;;;;9.68;3.00;;;16.90;92.50;;;;;;4955244;29;20034;-74
2022/11/03 14:32:48;;;;;;;15.18;4.20;;;16.90;92.80;;;;;;4938495;29;20046;-74
2022/11/03 14:35:13;;;;;;;9.55;4.97;;;17.00;93.10;;;;;;4955321;29;20031;-70
2022/11/03 14:37:39;;;;;;;11.75;3.70;;;17.00;93.30;;;;;;4956568;28;20383;-74
2022/11/03 14:40:06;;;;;;;10.38;3.33;;;16.80;93.90;;;;;;4959537;29;20027;-72
2022/11/03 14:42:31;;;;;;;5.47;3.22;;;16.70;95.00;;;;;;4942094;29;20113;-75
2022/11/03 14:44:57;;;;;;;9.18;3.25;;;16.50;95.60;;;;;;4958830;29;20124;-71
2022/11/03 14:47:24;;;;;;;7.30;3.33;;;16.50;96.50;;;;;;4959602;29;20058;-73
2022/11/03 14:49:50;;;;;;;6.15;2.70;;;16.40;97.30;;;;;;4959103;29;20058;-73
2022/11/03 14:52:16;;;;;;;11.27;3.97;;;16.30;98.20;;;;;;4941818;29;20023;-73
2022/11/03 14:54:42;;;;;;;5.90;3.15;;;16.20;99.20;;;;;;4959099;29;20023;-73
2022/11/03 14:57:08;;;;;;;4.95;2.90;;;16.10;99.90;;;;;;4941615;29;20475;-74
2022/11/03 14:59:34;;;;;;;6.78;3.00;;;16.00;99.90;;;;;;4941742;29;20031;-75
2022/11/03 15:02:00;;;;;;;6.85;3.15;;;16.00;99.90;;;;;;4941671;29;20459;-76
2022/11/03 15:04:26;;;;;;;8.52;4.07;;;15.90;99.90;;;;;;4941597;29;20035;-74
2022/11/03 15:06:52;;;;;;;8.95;3.90;;;15.80;99.90;;;;;;4958897;29;20364;-73
2022/11/03 15:09:18;;;;;;;4.25;3.08;;;15.80;99.90;;;;;;4958337;29;20086;-78
2022/11/03 15:11:44;;;;;;;6.80;3.70;;;15.80;99.90;;;;;;4941440;29;20099;-72
2022/11/03 15:14:11;;;;;;;7.70;3.40;;;15.70;99.90;;;;;;4941411;29;20027;-73
2022/11/03 15:16:37;;;;;;;9.52;4.03;;;15.70;99.90;;;;;;4958799;29;20024;-73
2022/11/03 15:19:04;;;;;;;6.25;3.30;;;15.60;99.90;;;;;;4941463;29;20078;-73
2022/11/03 15:21:30;;;;;;;4.15;3.15;;;15.60;99.90;;;;;;4958594;29;20106;-74
2022/11/03 15:23:56;;;;;;;7.70;3.80;;;15.60;99.90;;;;;;4941161;29;20450;-73
2022/11/03 15:26:21;;;;;;;4.43;2.97;;;15.50;99.90;;;;;;4941095;29;20126;-73
2022/11/03 15:28:47;;;;;;;5.40;3.45;;;15.40;99.90;;;;;;4940628;29;20038;-74
2022/11/03 15:31:13;;;;;;;5.78;3.42;;;15.30;99.90;;;;;;4958183;29;20078;-74
2022/11/03 15:33:38;;;;;;;7.97;3.97;;;15.30;99.90;;;;;;4941003;29;20024;-72
2022/11/03 15:36:06;;;;;;;6.00;3.45;;;15.20;99.90;;;;;;4958087;29;20034;-74
2022/11/03 15:38:32;;;;;;;5.68;3.55;;;15.10;99.90;;;;;;4958426;29;20042;-78
2022/11/03 15:41:14;;;;;;;9.60;3.92;;;15.00;99.90;;;;;;4958521;29;20027;-73
2022/11/03 15:43:47;;;;;;;8.82;4.82;;;14.90;99.90;;;;;;4941473;29;20059;-74
2022/11/03 15:46:15;;;;;;;12.23;4.22;;;14.90;99.90;;;;;;4941314;29;20122;-73
2022/11/03 15:48:41;;;;;;;7.05;4.20;;;14.90;99.90;;;;;;4956830;28;20055;-72
2022/11/03 15:51:07;;;;;;;12.95;4.18;;;14.90;99.90;;;;;;4940902;29;20043;-73
2022/11/03 15:53:33;;;;;;;9.88;3.88;;;14.80;99.90;;;;;;4940844;29;20110;-74
2022/11/03 15:55:59;;;;;;;10.15;4.88;;;14.80;99.90;;;;;;4940813;29;20055;-72
2022/11/03 15:58:25;;;;;;;9.52;4.70;;;14.80;99.90;;;;;;4957397;29;20468;-73
2022/11/03 16:00:51;;;;;;;8.02;3.78;;;14.70;99.90;;;;;;4958064;29;20031;-75
2022/11/03 16:03:17;;;;;;;16.80;4.15;;;14.70;99.90;;;;;;4939588;29;20380;-75
2022/11/03 16:05:43;;;;;;;18.52;4.28;;;14.60;99.90;;;;;;4958861;29;20135;-75
2022/11/03 16:08:10;;;;;;;9.50;4.63;;;14.60;99.90;;;;;;4949771;29;20015;-75
2022/11/03 16:10:36;;;;;;;10.02;4.07;;;14.50;99.90;;;;;;4945120;29;20031;-76
2022/11/03 16:13:01;;;;;;;7.63;4.80;;;14.40;99.90;;;;;;4962319;29;20464;-75
2022/11/03 16:15:29;;;;;;;6.60;4.60;;;14.30;99.90;;;;;;4961666;29;20042;-76
2022/11/03 16:18:01;;;;;;;7.95;4.78;;;14.30;99.90;;;;;;4944648;29;20122;-75
2022/11/03 16:20:28;;;;;;;16.20;5.40;;;14.40;99.90;;;;;;4940651;29;20368;-75
2022/11/03 16:22:54;;;;;;;6.75;4.80;;;14.30;99.90;;;;;;4940627;29;20026;-73
2022/11/03 16:25:28;;;;;;;10.65;5.00;;;14.20;99.90;;;;;;4958408;29;20031;-74
2022/11/03 16:27:59;;;;;;;9.63;4.40;;;14.10;99.90;;;;;;4936658;29;20039;-73
2022/11/03 16:30:27;;;;;;;8.93;4.82;;;14.10;99.90;;;;;;4940258;29;20030;-73
2022/11/03 16:33:11;;;;;;;10.07;4.60;;;14.10;99.90;;;;;;4957055;29;20023;-76
2022/11/03 16:35:44;;;;;;;10.77;5.43;;;14.00;99.90;;;;;;4938541;29;20035;-75
2022/11/03 16:38:12;;;;;;;10.25;6.03;;;13.90;99.90;;;;;;4948035;29;20387;-73
2022/11/03 16:40:38;;;;;;;7.53;4.22;;;13.80;99.90;;;;;;4940334;29;20114;-73
2022/11/03 16:43:04;;;;;;;7.95;3.65;;;13.80;99.90;;;;;;4957405;29;20106;-73
2022/11/03 16:45:31;;;;;;;11.98;4.22;;;13.70;99.90;;;;;;4957345;29;20024;-73
2022/11/03 16:47:57;;;;;;;7.80;3.78;;;13.60;99.90;;;;;;4940670;29;20031;-74
2022/11/03 16:50:22;;;;;;;10.85;4.47;;;13.60;99.90;;;;;;4939454;29;20047;-74
2022/11/03 16:52:50;;;;;;;10.02;3.97;;;13.50;99.90;;;;;;4939579;29;20418;-74
2022/11/03 16:55:17;;;;;;;8.00;4.15;;;13.50;99.90;;;;;;4956895;29;20082;-73
2022/11/03 16:57:44;;;;;;;9.07;3.70;;;13.40;99.90;;;;;;4939028;29;20507;-72
2022/11/03 17:00:15;;;;;;;9.25;4.63;;;13.40;99.90;;;;;;4955970;28;20031;-75
2022/11/03 17:02:41;;;;;;;11.48;4.97;;;13.30;99.90;;;;;;4957046;29;20024;-74
2022/11/03 17:05:08;;;;;;;10.90;4.18;;;13.20;99.90;;;;;;4956609;29;20031;-73
2022/11/03 17:07:33;;;;;;;9.57;3.90;;;13.20;99.90;;;;;;4938638;28;20037;-73
2022/11/03 17:09:59;;;;;;;9.05;4.35;;;13.10;99.90;;;;;;4943642;28;20027;-73
2022/11/03 17:12:25;;;;;;;8.98;4.57;;;13.00;99.90;;;;;;4956003;28;20027;-73
2022/11/03 17:14:50;;;;;;;10.25;4.35;;;13.00;99.90;;;;;;4955310;28;20023;-75
2022/11/03 17:17:16;;;;;;;9.20;4.78;;;13.00;99.90;;;;;;4939139;29;20123;-75
2022/11/03 17:19:48;;;;;;;14.07;5.60;;;13.00;99.90;;;;;;4956745;29;20110;-75
2022/11/03 17:22:14;;;;;;;11.88;5.45;;;12.90;99.90;;;;;;4956103;29;20028;-74
2022/11/03 17:24:40;;;;;;;13.60;6.38;;;12.90;99.90;;;;;;4922275;28;20036;-77
2022/11/03 17:27:28;;;;;;;10.68;5.95;;;13.00;99.90;;;;;;4956593;29;20031;-74
2022/11/03 17:30:00;;;;;;;7.80;4.60;;;13.00;99.90;;;;;;4956829;29;20042;-74
2022/11/03 17:32:39;;;;;;;10.95;4.95;;;13.00;99.90;;;;;;4956539;29;20023;-75
2022/11/03 17:35:16;;;;;;;10.63;5.60;;;13.00;99.90;;;;;;4956320;29;20023;-76
2022/11/03 17:37:42;;;;;;;13.20;5.47;;;12.90;99.90;;;;;;4938809;29;20043;-76
2022/11/03 17:40:21;;;;;;;11.88;6.13;;;12.90;99.90;;;;;;4930507;29;20035;-74
2022/11/03 17:42:49;;;;;;;15.57;5.85;;;12.90;99.90;;;;;;4919642;29;20051;-74
2022/11/03 17:45:18;;;;;;;10.95;5.38;;;12.80;99.90;;;;;;4920202;29;20070;-75
2022/11/03 17:47:43;;;;;;;11.30;5.60;;;12.80;99.90;;;;;;4919782;29;20035;-74
2022/11/03 17:50:14;;;;;;;9.38;5.80;;;12.80;99.90;;;;;;4936319;29;20297;-75
2022/11/03 17:52:41;;;;;;;11.27;5.88;;;12.80;99.90;;;;;;4920149;29;20357;-74
2022/11/03 17:55:16;;;;;;;14.30;6.10;;;12.90;99.90;;;;;;4936830;29;20031;-74
2022/11/03 17:57:43;;;;;;;12.18;5.80;;;12.90;99.90;;;;;;4936652;29;20035;-74
2022/11/03 18:00:21;;;;;;;10.75;6.43;;;12.90;99.90;;;;;;4919724;29;20054;-74